createdAt,value
2024-03-14T00:02:33.728Z,101236.13
2024-03-14T00:05:22.759Z,101233.50
2024-03-14T00:08:10.513Z,101239.06
2024-03-14T00:10:58.683Z,101247.91
2024-03-14T00:13:46.929Z,101232.38
2024-03-14T00:16:35.289Z,101241.03
2024-03-14T00:19:24.391Z,101237.56
2024-03-14T00:22:13.566Z,101230.03
2024-03-14T00:25:01.250Z,101230.13
2024-03-14T00:27:49.034Z,101224.63
2024-03-14T00:30:38.815Z,101235.47
2024-03-14T00:33:26.454Z,101224.44
2024-03-14T00:36:16.284Z,101221.41
2024-03-14T00:39:04.077Z,101218.31
2024-03-14T00:41:51.854Z,101204.31
2024-03-14T00:44:43.607Z,101220.13
2024-03-14T00:47:35.154Z,101217.78
2024-03-14T00:50:24.267Z,101212.69
2024-03-14T00:53:13.129Z,101211.09
2024-03-14T00:56:02.969Z,101214.13
2024-03-14T00:58:50.936Z,101216.75
2024-03-14T01:01:46.118Z,101213.19
2024-03-14T01:04:35.500Z,101214.50
2024-03-14T01:07:26.059Z,101218.16
2024-03-14T01:10:14.954Z,101210.34
2024-03-14T01:13:02.553Z,101220.63
2024-03-14T01:15:50.181Z,101213.38
2024-03-14T01:18:40.829Z,101214.22
2024-03-14T01:21:28.923Z,101207.28
2024-03-14T01:24:16.682Z,101209.06
2024-03-14T01:27:04.633Z,101211.88
2024-03-14T01:29:53.493Z,101210.47
2024-03-14T01:32:41.636Z,101211.03
2024-03-14T01:35:30.463Z,101203.88
2024-03-14T01:38:18.120Z,101195.81
2024-03-14T01:41:21.555Z,101194.19
2024-03-14T01:44:09.271Z,101190.63
2024-03-14T01:46:57.209Z,101188.56
2024-03-14T01:49:46.776Z,101183.09
2024-03-14T01:52:37.162Z,101186.75
2024-03-14T01:55:29.730Z,101185.53
2024-03-14T01:58:26.468Z,101189.00
2024-03-14T02:01:14.417Z,101184.91
2024-03-14T02:04:21.837Z,101182.53
2024-03-14T02:07:15.165Z,101176.22
2024-03-14T02:10:02.965Z,101179.25
2024-03-14T02:12:50.562Z,101173.13
2024-03-14T02:15:40.742Z,101172.84
2024-03-14T02:18:28.468Z,101175.00
2024-03-14T02:21:16.314Z,101155.75
2024-03-14T02:24:04.195Z,101166.38
2024-03-14T02:26:53.002Z,101156.88
2024-03-14T02:29:42.959Z,101146.63
2024-03-14T02:32:30.823Z,101143.06
2024-03-14T02:35:18.540Z,101143.78
2024-03-14T02:38:08.673Z,101138.72
2024-03-14T02:40:56.318Z,101145.69
2024-03-14T02:43:44.863Z,101145.69
2024-03-14T02:46:32.508Z,101146.44
2024-03-14T02:49:25.002Z,101135.44
2024-03-14T02:52:17.122Z,101129.41
2024-03-14T02:55:08.408Z,101136.28
2024-03-14T02:57:56.389Z,101136.38
2024-03-14T03:00:44.075Z,101138.25
2024-03-14T03:03:31.734Z,101136.47
2024-03-14T03:06:24.789Z,101134.94
2024-03-14T03:09:16.197Z,101136.66
2024-03-14T03:12:06.515Z,101128.75
2024-03-14T03:15:00.458Z,101122.66
2024-03-14T03:17:49.426Z,101124.69
2024-03-14T03:20:39.202Z,101120.22
2024-03-14T03:23:28.091Z,101117.91
2024-03-14T03:26:15.780Z,101119.34
2024-03-14T03:29:03.733Z,101116.81
2024-03-14T03:31:51.422Z,101115.13
2024-03-14T03:34:40.669Z,101103.66
2024-03-14T03:37:30.135Z,101103.66
2024-03-14T03:40:25.263Z,101104.59
2024-03-14T03:43:14.025Z,101101.78
2024-03-14T03:46:03.021Z,101100.44
2024-03-14T03:48:50.841Z,101105.63
2024-03-14T03:51:39.027Z,101097.88
2024-03-14T03:54:26.689Z,101097.16
2024-03-14T03:57:15.078Z,101107.75
2024-03-14T04:00:16.968Z,101099.19
2024-03-14T04:03:10.304Z,101102.78
2024-03-14T04:06:01.299Z,101099.19
2024-03-14T04:08:49.175Z,101093.66
2024-03-14T04:11:36.943Z,101090.09
2024-03-14T04:14:24.540Z,101095.25
2024-03-14T04:17:14.088Z,101096.09
2024-03-14T04:20:01.686Z,101095.25
2024-03-14T04:22:49.824Z,101085.94
2024-03-14T04:25:38.612Z,101086.13
2024-03-14T04:28:26.972Z,101087.56
2024-03-14T04:31:14.740Z,101086.72
2024-03-14T04:34:05.995Z,101087.94
2024-03-14T04:36:57.388Z,101089.41
2024-03-14T04:39:45.174Z,101095.44
2024-03-14T04:42:32.906Z,101086.59
2024-03-14T04:45:22.912Z,101084.81
2024-03-14T04:48:11.180Z,101079.66
2024-03-14T04:51:00.809Z,101086.03
2024-03-14T04:53:48.583Z,101081.69
2024-03-14T04:56:37.051Z,101076.53
2024-03-14T04:59:25.673Z,101081.31
2024-03-14T05:02:13.297Z,101082.16
2024-03-14T05:05:02.102Z,101078.88
2024-03-14T05:07:50.421Z,101084.31
2024-03-14T05:10:39.474Z,101092.66
2024-03-14T05:13:29.149Z,101084.94
2024-03-14T05:16:17.921Z,101095.47
2024-03-14T05:19:05.804Z,101087.56
2024-03-14T05:21:53.500Z,101088.59
2024-03-14T05:24:41.252Z,101093.47
2024-03-14T05:27:29.944Z,101084.31
2024-03-14T05:30:19.667Z,101086.09
2024-03-14T05:33:07.524Z,101082.56
2024-03-14T05:35:55.546Z,101086.78
2024-03-14T05:38:44.353Z,101081.78
2024-03-14T05:41:32.101Z,101087.81
2024-03-14T05:44:20.278Z,101081.69
2024-03-14T05:47:10.884Z,101078.50
2024-03-14T05:49:59.897Z,101081.03
2024-03-14T05:52:48.804Z,101077.75
2024-03-14T05:55:38.892Z,101074.25
2024-03-14T05:58:26.808Z,101076.88
2024-03-14T06:01:16.889Z,101073.41
2024-03-14T06:04:06.307Z,101069.94
2024-03-14T06:07:00.340Z,101070.03
2024-03-14T06:09:52.092Z,101073.41
2024-03-14T06:12:41.118Z,101077.91
2024-03-14T06:15:30.451Z,101075.38
2024-03-14T06:18:22.658Z,101077.06
2024-03-14T06:21:12.683Z,101068.91
2024-03-14T06:24:01.046Z,101061.78
2024-03-14T06:26:50.234Z,101069.50
2024-03-14T06:29:40.120Z,101073.19
2024-03-14T06:32:28.401Z,101077.81
2024-03-14T06:35:17.575Z,101075.22
2024-03-14T06:38:06.771Z,101077.00
2024-03-14T06:40:56.219Z,101075.31
2024-03-14T06:43:44.414Z,101072.09
2024-03-14T06:46:33.245Z,101071.91
2024-03-14T06:49:21.085Z,101078.78
2024-03-14T06:52:11.117Z,101072.03
2024-03-14T06:54:59.122Z,101079.38
2024-03-14T06:57:48.899Z,101079.00
2024-03-14T07:00:41.547Z,101080.28
2024-03-14T07:03:29.857Z,101081.75
2024-03-14T07:06:17.634Z,101081.16
2024-03-14T07:09:11.334Z,101077.00
2024-03-14T07:12:00.496Z,101075.88
2024-03-14T07:14:48.650Z,101084.69
2024-03-14T07:17:36.470Z,101087.59
2024-03-14T07:20:34.340Z,101082.53
2024-03-14T07:23:24.592Z,101079.81
2024-03-14T07:26:17.310Z,101085.63
2024-03-14T07:29:06.749Z,101079.63
2024-03-14T07:31:55.022Z,101083.75
2024-03-14T07:34:46.216Z,101081.09
2024-03-14T07:37:35.806Z,101083.09
2024-03-14T07:40:33.912Z,101076.19
2024-03-14T07:43:22.712Z,101076.47
2024-03-14T07:46:20.455Z,101080.03
2024-03-14T07:49:10.786Z,101075.13
2024-03-14T07:51:59.700Z,101075.25
2024-03-14T07:54:48.926Z,101080.75
2024-03-14T07:57:37.980Z,101074.63
2024-03-14T08:00:29.499Z,101085.25
2024-03-14T08:03:18.017Z,101074.00
2024-03-14T08:06:09.585Z,101068.31
2024-03-14T08:08:57.444Z,101079.81
2024-03-14T08:11:47.517Z,101083.81
2024-03-14T08:14:45.194Z,101077.63
2024-03-14T08:17:33.055Z,101076.84
2024-03-14T08:20:26.044Z,101070.31
2024-03-14T08:23:16.911Z,101069.91
2024-03-14T08:26:08.367Z,101071.59
2024-03-14T08:29:01.701Z,101074.75
2024-03-14T08:31:50.272Z,101082.34
2024-03-14T08:37:44.902Z,101071.16
2024-03-14T08:40:36.232Z,101074.59
2024-03-14T08:43:26.418Z,101070.78
2024-03-14T08:46:16.676Z,101072.94
2024-03-14T08:49:05.968Z,101063.13
2024-03-14T08:51:54.861Z,101070.38
2024-03-14T08:54:46.373Z,101060.75
2024-03-14T08:57:35.117Z,101065.91
2024-03-14T09:00:23.773Z,101073.41
2024-03-14T09:03:11.733Z,101069.97
2024-03-14T09:06:06.600Z,101065.72
2024-03-14T09:09:08.124Z,101069.13
2024-03-14T09:11:57.841Z,101064.22
2024-03-14T09:14:45.652Z,101068.59
2024-03-14T09:17:33.535Z,101071.00
2024-03-14T09:20:22.189Z,101074.00
2024-03-14T09:23:17.365Z,101071.25
2024-03-14T09:26:07.535Z,101073.41
2024-03-14T09:29:02.180Z,101060.56
2024-03-14T09:31:50.921Z,101056.41
2024-03-14T09:34:39.875Z,101063.19
2024-03-14T09:37:28.144Z,101051.47
2024-03-14T09:40:17.571Z,101049.19
2024-03-14T09:43:06.182Z,101052.19
2024-03-14T09:45:56.389Z,101048.09
2024-03-14T09:48:44.192Z,101049.16
2024-03-14T09:51:34.423Z,101050.50
2024-03-14T09:54:29.241Z,101059.22
2024-03-14T09:57:18.308Z,101059.50
2024-03-14T10:00:13.362Z,101057.19
2024-03-14T10:03:03.012Z,101052.41
2024-03-14T10:05:58.024Z,101039.47
2024-03-14T10:09:17.650Z,101035.91
2024-03-14T10:12:16.044Z,101040.09
2024-03-14T10:15:14.110Z,101031.47
2024-03-14T10:18:03.055Z,101012.59
2024-03-14T10:20:54.208Z,101033.38
2024-03-14T10:23:43.808Z,101031.88
2024-03-14T10:26:32.302Z,101031.78
2024-03-14T10:29:23.918Z,101026.44
2024-03-14T10:32:20.220Z,101028.34
2024-03-14T10:35:13.312Z,101031.84
2024-03-14T10:38:16.893Z,101009.94
2024-03-14T10:41:12.737Z,101017.88
2024-03-14T10:44:10.391Z,101009.81
2024-03-14T10:47:00.598Z,101010.72
2024-03-14T10:50:17.500Z,101007.84
2024-03-14T10:53:14.287Z,101000.06
2024-03-14T10:56:08.439Z,100997.88
2024-03-14T10:59:05.477Z,101002.72
2024-03-14T11:01:56.034Z,101000.16
2024-03-14T11:04:49.151Z,101004.59
2024-03-14T11:07:44.622Z,100992.09
2024-03-14T11:10:36.452Z,100992.28
2024-03-14T11:13:38.863Z,100993.56
2024-03-14T11:16:44.650Z,100984.56
2024-03-14T11:19:38.440Z,100989.53
2024-03-14T11:22:28.440Z,100987.34
2024-03-14T11:25:22.299Z,100969.69
2024-03-14T11:28:13.857Z,100967.47
2024-03-14T11:31:04.569Z,100972.44
2024-03-14T11:34:00.092Z,100973.78
2024-03-14T11:36:52.089Z,100974.13
2024-03-14T11:39:41.534Z,100957.41
2024-03-14T11:42:30.325Z,100958.00
2024-03-14T11:45:20.456Z,100961.75
2024-03-14T11:48:10.155Z,100959.66
2024-03-14T11:51:01.310Z,100948.78
2024-03-14T11:53:52.510Z,100945.63
2024-03-14T11:56:41.990Z,100939.81
2024-03-14T11:59:33.198Z,100939.84
2024-03-14T12:02:22.918Z,100935.75
2024-03-14T12:05:21.231Z,100935.38
2024-03-14T12:08:12.034Z,100932.16
2024-03-14T12:11:03.057Z,100921.38
2024-03-14T12:13:54.391Z,100931.50
2024-03-14T12:16:47.828Z,100927.94
2024-03-14T12:19:35.550Z,100919.38
2024-03-14T12:22:23.484Z,100904.69
2024-03-14T12:25:22.133Z,100900.81
2024-03-14T12:28:12.392Z,100896.25
2024-03-14T12:31:03.142Z,100894.88
2024-03-14T12:33:51.937Z,100890.88
2024-03-14T12:36:40.651Z,100882.38
2024-03-14T12:39:31.107Z,100870.88
2024-03-14T12:42:23.538Z,100867.59
2024-03-14T12:45:18.736Z,100865.31
2024-03-14T12:48:08.405Z,100866.50
2024-03-14T12:51:15.429Z,100856.31
2024-03-14T12:54:06.082Z,100844.75
2024-03-14T12:56:54.936Z,100848.53
2024-03-14T12:59:50.788Z,100839.97
2024-03-14T13:02:38.443Z,100851.13
2024-03-14T13:05:30.525Z,100845.06
2024-03-14T13:08:21.837Z,100840.94
2024-03-14T13:11:22.278Z,100835.84
2024-03-14T13:14:17.200Z,100827.56
2024-03-14T13:17:14.969Z,100829.06
2024-03-14T13:20:14.627Z,100826.84
2024-03-14T13:23:04.567Z,100814.22
2024-03-14T13:25:52.681Z,100811.03
2024-03-14T13:28:42.199Z,100809.03
2024-03-14T13:31:31.450Z,100809.97
2024-03-14T13:34:22.267Z,100796.50
2024-03-14T13:37:10.582Z,100796.03
2024-03-14T13:39:59.634Z,100795.03
2024-03-14T13:42:49.782Z,100789.41
2024-03-14T13:45:48.347Z,100785.19
2024-03-14T13:48:38.543Z,100786.50
2024-03-14T13:51:28.486Z,100791.53
2024-03-14T13:54:25.542Z,100777.25
2024-03-14T13:57:18.016Z,100782.25
2024-03-14T14:00:13.025Z,100791.53
2024-03-14T14:03:05.491Z,100785.41
2024-03-14T14:06:01.740Z,100784.66
2024-03-14T14:08:54.647Z,100766.06
2024-03-14T14:11:44.512Z,100768.66
2024-03-14T14:14:35.048Z,100774.34
2024-03-14T14:17:25.793Z,100766.34
2024-03-14T14:20:13.752Z,100768.78
2024-03-14T14:23:01.812Z,100765.91
2024-03-14T14:25:49.563Z,100759.69
2024-03-14T14:28:42.696Z,100743.63
2024-03-14T14:31:31.727Z,100747.19
2024-03-14T14:34:21.245Z,100743.19
2024-03-14T14:37:10.267Z,100737.28
2024-03-14T14:39:59.094Z,100734.38
2024-03-14T14:42:48.097Z,100732.91
2024-03-14T14:45:38.696Z,100727.44
2024-03-14T14:48:28.083Z,100724.13
2024-03-14T14:51:16.073Z,100711.47
2024-03-14T14:54:07.439Z,100707.53
2024-03-14T14:56:55.823Z,100703.66
2024-03-14T14:59:43.581Z,100702.47
2024-03-14T15:02:31.399Z,100704.00
2024-03-14T15:05:19.740Z,100707.72
2024-03-14T15:08:08.843Z,100708.91
2024-03-14T15:10:58.691Z,100691.44
2024-03-14T15:13:50.042Z,100700.09
2024-03-14T15:16:38.599Z,100689.34
2024-03-14T15:19:26.932Z,100679.56
2024-03-14T15:22:23.794Z,100678.25
2024-03-14T15:25:16.539Z,100687.22
2024-03-14T15:28:05.251Z,100689.38
2024-03-14T15:30:54.296Z,100675.09
2024-03-14T15:33:43.899Z,100681.00
2024-03-14T15:36:33.165Z,100677.59
2024-03-14T15:39:21.112Z,100673.91
2024-03-14T15:42:09.237Z,100673.16
2024-03-14T15:45:06.856Z,100656.13
2024-03-14T15:47:55.811Z,100661.69
2024-03-14T15:50:45.751Z,100651.72
2024-03-14T15:53:35.277Z,100659.75
2024-03-14T15:56:23.309Z,100650.22
2024-03-14T15:59:12.066Z,100644.03
2024-03-14T16:02:03.413Z,100638.69
2024-03-14T16:04:51.451Z,100636.19
2024-03-14T16:07:41.113Z,100642.03
2024-03-14T16:10:31.963Z,100641.88
2024-03-14T16:13:19.615Z,100645.56
2024-03-14T16:16:07.644Z,100647.06
2024-03-14T16:19:05.847Z,100651.78
2024-03-14T16:22:01.078Z,100644.63
2024-03-14T16:24:58.723Z,100651.50
2024-03-14T16:27:54.028Z,100643.63
2024-03-14T16:30:44.478Z,100644.97
2024-03-14T16:33:36.577Z,100631.44
2024-03-14T16:36:26.133Z,100642.47
2024-03-14T16:39:21.084Z,100641.13
2024-03-14T16:42:11.894Z,100642.09
2024-03-14T16:45:09.138Z,100632.53
2024-03-14T16:48:09.194Z,100633.84
2024-03-14T16:51:06.098Z,100632.16
2024-03-14T16:53:54.886Z,100632.28
2024-03-14T16:56:44.625Z,100629.78
2024-03-14T16:59:38.325Z,100632.94
2024-03-14T17:02:38.682Z,100628.06
2024-03-14T17:05:32.583Z,100632.38
2024-03-14T17:11:12.478Z,100629.84
2024-03-14T17:14:00.275Z,100627.78
2024-03-14T17:16:55.463Z,100621.72
2024-03-14T17:19:51.627Z,100625.00
2024-03-14T17:22:44.416Z,100626.94
2024-03-14T17:25:34.548Z,100631.09
2024-03-14T17:28:22.612Z,100633.72
2024-03-14T17:31:10.757Z,100624.97
2024-03-14T17:33:58.724Z,100629.38
2024-03-14T17:36:48.947Z,100629.34
2024-03-14T17:39:38.083Z,100626.78
2024-03-14T17:42:27.392Z,100627.22
2024-03-14T17:45:26.782Z,100618.81
2024-03-14T17:48:14.872Z,100618.75
2024-03-14T17:51:02.871Z,100614.50
2024-03-14T17:53:51.374Z,100609.13
2024-03-14T17:56:45.724Z,100605.91
2024-03-14T17:59:37.206Z,100605.84
2024-03-14T18:02:30.618Z,100602.81
2024-03-14T18:05:21.698Z,100616.69
2024-03-14T18:08:10.721Z,100612.50
2024-03-14T18:11:01.531Z,100619.97
2024-03-14T18:13:50.964Z,100609.78
2024-03-14T18:16:41.086Z,100610.22
2024-03-14T18:19:32.603Z,100608.84
2024-03-14T18:22:25.332Z,100616.13
2024-03-14T18:25:23.075Z,100615.56
2024-03-14T18:28:13.708Z,100612.38
2024-03-14T18:31:05.932Z,100620.78
2024-03-14T18:33:54.471Z,100616.03
2024-03-14T18:36:46.902Z,100617.50
2024-03-14T18:39:38.336Z,100618.63
2024-03-14T18:42:27.324Z,100609.41
2024-03-14T18:45:18.446Z,100603.69
2024-03-14T18:48:13.933Z,100611.81
2024-03-14T18:51:04.798Z,100611.44
2024-03-14T18:53:55.715Z,100616.91
2024-03-14T18:56:49.079Z,100618.88
2024-03-14T18:59:38.753Z,100610.66
2024-03-14T19:02:30.119Z,100618.47
2024-03-14T19:05:28.695Z,100617.91
2024-03-14T19:08:21.342Z,100614.56
2024-03-14T19:11:10.924Z,100602.13
2024-03-14T19:14:01.538Z,100597.94
2024-03-14T19:16:52.799Z,100599.03
2024-03-14T19:19:42.302Z,100599.59
2024-03-14T19:22:39.082Z,100601.69
2024-03-14T19:25:28.026Z,100599.59
2024-03-14T19:28:18.407Z,100588.97
2024-03-14T19:31:11.718Z,100594.44
2024-03-14T19:34:00.961Z,100595.53
2024-03-14T19:36:50.838Z,100588.53
2024-03-14T19:39:41.221Z,100590.38
2024-03-14T19:42:31.597Z,100590.38
2024-03-14T19:45:30.142Z,100575.56
2024-03-14T19:48:20.322Z,100577.38
2024-03-14T19:51:09.609Z,100574.19
2024-03-14T19:54:11.553Z,100579.78
2024-03-14T19:57:02.386Z,100584.53
2024-03-14T19:59:51.231Z,100569.47
2024-03-14T20:02:43.283Z,100571.41
2024-03-14T20:05:33.281Z,100574.91
2024-03-14T20:08:21.573Z,100560.78
2024-03-14T20:11:18.243Z,100569.91
2024-03-14T20:14:06.986Z,100566.09
2024-03-14T20:16:57.329Z,100572.25
2024-03-14T20:19:45.611Z,100573.91
2024-03-14T20:22:35.741Z,100574.63
2024-03-14T20:25:26.083Z,100564.28
2024-03-14T20:28:13.947Z,100574.19
2024-03-14T20:31:03.339Z,100572.41
2024-03-14T20:33:51.586Z,100570.56
2024-03-14T20:36:45.746Z,100564.00
2024-03-14T20:39:42.610Z,100568.50
2024-03-14T20:42:41.856Z,100572.84
2024-03-14T20:45:41.307Z,100559.41
2024-03-14T20:48:31.717Z,100555.91
2024-03-14T20:51:20.895Z,100559.41
2024-03-14T20:54:12.439Z,100551.44
2024-03-14T20:57:02.853Z,100553.41
2024-03-14T21:00:02.083Z,100552.72
2024-03-14T21:02:51.761Z,100555.38
2024-03-14T21:05:48.961Z,100547.41
2024-03-14T21:08:58.442Z,100554.69
2024-03-14T21:11:47.730Z,100559.44
2024-03-14T21:14:37.777Z,100553.28
2024-03-14T21:17:26.579Z,100555.94
2024-03-14T21:20:24.832Z,100546.44
2024-03-14T21:23:13.190Z,100556.22
2024-03-14T21:26:01.736Z,100555.53
2024-03-14T21:28:49.859Z,100559.72
2024-03-14T21:31:38.544Z,100551.91
2024-03-14T21:34:26.237Z,100558.06
2024-03-14T21:37:15.775Z,100562.69
2024-03-14T21:40:06.968Z,100565.63
2024-03-14T21:42:54.776Z,100565.31
2024-03-14T21:45:43.117Z,100564.63
2024-03-14T21:48:34.467Z,100565.34
2024-03-14T21:51:24.900Z,100566.59
2024-03-14T21:54:14.910Z,100557.13
2024-03-14T21:57:03.979Z,100566.19
2024-03-14T21:59:53.152Z,100558.38
2024-03-14T22:02:40.724Z,100564.81
2024-03-14T22:05:28.446Z,100562.00
2024-03-14T22:08:20.592Z,100553.91
2024-03-14T22:11:08.320Z,100554.34
2024-03-14T22:13:58.787Z,100557.25
2024-03-14T22:16:48.310Z,100556.44
2024-03-14T22:19:39.756Z,100543.16
2024-03-14T22:22:29.389Z,100554.47
2024-03-14T22:25:18.255Z,100550.00
2024-03-14T22:28:09.707Z,100556.03
2024-03-14T22:31:11.563Z,100555.03
2024-03-14T22:34:00.475Z,100556.16
2024-03-14T22:36:50.080Z,100556.44
2024-03-14T22:39:39.302Z,100554.06
2024-03-14T22:42:27.565Z,100542.88
2024-03-14T22:45:17.246Z,100542.31
2024-03-14T22:48:06.129Z,100539.66
2024-03-14T22:50:55.398Z,100544.84
2024-03-14T22:53:43.061Z,100538.81
2024-03-14T22:56:31.565Z,100533.75
2024-03-14T22:59:19.448Z,100525.41
2024-03-14T23:02:07.781Z,100517.19
2024-03-14T23:04:55.567Z,100521.53
2024-03-14T23:07:43.281Z,100500.03
2024-03-14T23:10:33.691Z,100505.44
2024-03-14T23:13:29.911Z,100501.41
2024-03-14T23:16:19.629Z,100501.66
2024-03-14T23:19:09.091Z,100506.09
2024-03-14T23:21:57.839Z,100511.13
2024-03-14T23:24:47.678Z,100504.69
2024-03-14T23:27:40.388Z,100503.72
2024-03-14T23:30:30.981Z,100508.97
2024-03-14T23:33:19.320Z,100507.72
2024-03-14T23:36:08.687Z,100506.44
2024-03-14T23:38:58.837Z,100516.31
2024-03-14T23:41:48.507Z,100504.03
2024-03-14T23:44:36.300Z,100504.16
2024-03-14T23:47:24.179Z,100501.66
2024-03-14T23:50:20.578Z,100486.44
2024-03-14T23:53:09.173Z,100485.59
2024-03-14T23:55:56.894Z,100488.78
2024-03-14T23:58:46.428Z,100489.88
